createdAt,value
2023-01-13T00:01:30.525Z,9.70
2023-01-13T00:04:05.219Z,9.72
2023-01-13T00:06:39.390Z,9.72
2023-01-13T00:09:13.339Z,9.72
2023-01-13T00:11:47.758Z,9.70
2023-01-13T00:14:21.900Z,9.70
2023-01-13T00:16:55.786Z,9.70
2023-01-13T00:19:29.794Z,9.70
2023-01-13T00:22:03.728Z,9.70
2023-01-13T00:24:37.962Z,9.70
2023-01-13T00:27:11.987Z,9.66
2023-01-13T00:29:45.972Z,9.60
2023-01-13T00:32:19.801Z,9.60
2023-01-13T00:34:53.653Z,9.60
2023-01-13T00:37:28.232Z,9.60
2023-01-13T00:40:01.982Z,9.60
2023-01-13T00:42:49.593Z,9.60
2023-01-13T00:45:23.275Z,9.50
2023-01-13T00:47:57.324Z,9.50
2023-01-13T00:50:31.379Z,9.46
2023-01-13T00:53:05.485Z,9.40
2023-01-13T00:55:39.472Z,9.40
2023-01-13T00:58:13.290Z,9.40
2023-01-13T01:00:47.721Z,9.30
2023-01-13T01:03:21.948Z,9.30
2023-01-13T01:05:55.908Z,9.30
2023-01-13T01:08:30.439Z,9.30
2023-01-13T01:11:11.286Z,9.30
2023-01-13T01:13:45.912Z,9.30
2023-01-13T01:16:22.792Z,9.30
2023-01-13T01:18:58.365Z,9.30
2023-01-13T01:21:33.533Z,9.30
2023-01-13T01:24:10.532Z,9.30
2023-01-13T01:26:44.437Z,9.30
2023-01-13T01:29:18.915Z,9.30
2023-01-13T01:31:53.022Z,9.30
2023-01-13T01:34:27.041Z,9.36
2023-01-13T01:37:00.893Z,9.40
2023-01-13T01:39:34.794Z,9.40
2023-01-13T01:42:32.132Z,9.40
2023-01-13T01:45:18.393Z,9.50
2023-01-13T01:47:56.713Z,9.50
2023-01-13T01:50:32.927Z,9.50
2023-01-13T01:53:15.696Z,9.50
2023-01-13T01:55:49.936Z,9.60
2023-01-13T01:58:30.367Z,9.60
2023-01-13T02:01:05.022Z,9.62
2023-01-13T02:03:45.481Z,9.70
2023-01-13T02:06:21.609Z,9.70
2023-01-13T02:08:57.046Z,9.70
2023-01-13T02:11:54.627Z,9.74
2023-01-13T02:14:31.499Z,9.80
2023-01-13T02:17:28.496Z,9.80
2023-01-13T02:20:45.874Z,9.80
2023-01-13T02:24:13.383Z,9.80
2023-01-13T02:27:30.691Z,9.80
2023-01-13T02:30:37.048Z,9.82
2023-01-13T02:35:05.125Z,9.84
2023-01-13T02:37:44.600Z,9.86
2023-01-13T02:40:25.502Z,9.90
2023-01-13T02:43:25.325Z,9.88
2023-01-13T02:46:09.463Z,9.80
2023-01-13T02:48:47.152Z,9.80
2023-01-13T02:51:27.749Z,9.80
2023-01-13T02:54:09.350Z,9.80
2023-01-13T02:56:47.561Z,9.80
2023-01-13T02:59:26.244Z,9.80
2023-01-13T03:02:03.537Z,9.80
2023-01-13T03:04:55.315Z,9.80
2023-01-13T03:08:03.861Z,9.80
2023-01-13T03:11:03.165Z,9.80
2023-01-13T03:14:02.229Z,9.80
2023-01-13T03:16:50.620Z,9.80
2023-01-13T03:19:39.961Z,9.80
2023-01-13T03:22:25.718Z,9.86
2023-01-13T03:25:08.385Z,9.90
2023-01-13T03:27:54.363Z,9.90
2023-01-13T03:30:34.828Z,9.90
2023-01-13T03:33:17.204Z,10.00
2023-01-13T03:35:57.276Z,10.00
2023-01-13T03:38:37.345Z,9.90
2023-01-13T03:41:17.032Z,9.90
2023-01-13T03:44:30.340Z,9.80
2023-01-13T03:47:19.249Z,9.80
2023-01-13T03:50:01.989Z,9.70
2023-01-13T03:52:41.606Z,9.70
2023-01-13T03:55:20.397Z,9.70
2023-01-13T03:58:03.005Z,9.70
2023-01-13T04:00:43.914Z,9.60
2023-01-13T04:03:26.028Z,9.66
2023-01-13T04:06:16.023Z,9.70
2023-01-13T04:08:58.756Z,9.70
2023-01-13T04:11:40.834Z,9.70
2023-01-13T04:14:21.024Z,9.70
2023-01-13T04:16:56.017Z,9.70
2023-01-13T04:19:30.044Z,9.76
2023-01-13T04:22:03.924Z,9.78
2023-01-13T04:24:38.263Z,9.80
2023-01-13T04:27:12.173Z,9.80
2023-01-13T04:29:46.043Z,9.78
2023-01-13T04:32:20.254Z,9.80
2023-01-13T04:34:54.296Z,9.80
2023-01-13T04:37:28.587Z,9.80
2023-01-13T04:40:02.380Z,9.80
2023-01-13T04:42:36.452Z,9.82
2023-01-13T04:45:13.352Z,9.90
2023-01-13T04:47:48.613Z,9.88
2023-01-13T04:50:23.129Z,9.90
2023-01-13T04:52:58.325Z,9.90
2023-01-13T04:55:32.937Z,9.90
2023-01-13T04:58:11.926Z,9.90
2023-01-13T05:00:46.359Z,9.90
2023-01-13T05:03:20.212Z,9.90
2023-01-13T05:05:57.015Z,9.90
2023-01-13T05:08:31.049Z,9.90
2023-01-13T05:11:25.965Z,9.90
2023-01-13T05:14:17.827Z,9.94
2023-01-13T05:17:03.705Z,10.00
2023-01-13T05:20:30.421Z,10.00
2023-01-13T05:23:22.371Z,10.10
2023-01-13T05:25:56.289Z,10.10
2023-01-13T05:28:34.526Z,10.10
2023-01-13T05:31:08.861Z,10.10
2023-01-13T05:33:42.601Z,10.10
2023-01-13T05:36:16.470Z,10.10
2023-01-13T05:38:52.372Z,10.10
2023-01-13T05:41:43.394Z,10.10
2023-01-13T05:44:17.323Z,10.12
2023-01-13T05:46:51.445Z,10.10
2023-01-13T05:49:25.477Z,10.10
2023-01-13T05:51:59.417Z,10.10
2023-01-13T05:54:33.334Z,10.08
2023-01-13T05:57:07.595Z,10.00
2023-01-13T05:59:41.569Z,10.00
2023-01-13T06:02:15.725Z,9.94
2023-01-13T06:04:50.704Z,9.90
2023-01-13T06:07:24.650Z,9.90
2023-01-13T06:09:58.731Z,9.80
2023-01-13T06:12:32.728Z,9.80
2023-01-13T06:15:09.140Z,9.80
2023-01-13T06:17:43.109Z,9.72
2023-01-13T06:20:18.877Z,9.70
2023-01-13T06:22:55.843Z,9.70
2023-01-13T06:25:42.737Z,9.70
2023-01-13T06:28:16.543Z,9.70
2023-01-13T06:30:56.487Z,9.62
2023-01-13T06:33:34.782Z,9.60
2023-01-13T06:36:16.025Z,9.60
2023-01-13T06:38:55.824Z,9.60
2023-01-13T06:41:50.959Z,9.60
2023-01-13T06:44:26.634Z,9.60
2023-01-13T06:47:01.058Z,9.52
2023-01-13T06:49:35.429Z,9.52
2023-01-13T06:52:10.021Z,9.50
2023-01-13T06:54:43.868Z,9.60
2023-01-13T06:57:18.157Z,9.60
2023-01-13T06:59:52.355Z,9.60
2023-01-13T07:02:28.050Z,9.60
2023-01-13T07:05:04.431Z,9.60
2023-01-13T07:07:38.851Z,9.60
2023-01-13T07:10:22.369Z,9.60
2023-01-13T07:13:13.836Z,9.60
2023-01-13T07:15:58.541Z,9.70
2023-01-13T07:18:35.036Z,9.80
2023-01-13T07:21:13.740Z,9.80
2023-01-13T07:23:48.251Z,9.80
2023-01-13T07:26:22.194Z,9.90
2023-01-13T07:28:56.019Z,9.90
2023-01-13T07:31:30.190Z,10.00
2023-01-13T07:34:06.956Z,10.08
2023-01-13T07:36:41.538Z,10.10
2023-01-13T07:39:15.518Z,10.10
2023-01-13T07:42:07.663Z,10.14
2023-01-13T07:44:42.015Z,10.20
2023-01-13T07:47:16.236Z,10.20
2023-01-13T07:49:50.789Z,10.20
2023-01-13T07:52:24.650Z,10.20
2023-01-13T07:54:58.947Z,10.20
2023-01-13T07:57:33.337Z,10.30
2023-01-13T08:00:13.484Z,10.30
2023-01-13T08:02:47.425Z,10.30
2023-01-13T08:05:21.692Z,10.30
2023-01-13T08:07:55.937Z,10.30
2023-01-13T08:10:30.115Z,10.38
2023-01-13T08:13:21.636Z,10.40
2023-01-13T08:16:00.501Z,10.40
2023-01-13T08:18:36.108Z,10.46
2023-01-13T08:21:12.840Z,10.50
2023-01-13T08:23:47.913Z,10.50
2023-01-13T08:26:22.585Z,10.60
2023-01-13T08:28:56.531Z,10.60
2023-01-13T08:31:30.522Z,10.68
2023-01-13T08:34:04.881Z,10.70
2023-01-13T08:36:38.737Z,10.78
2023-01-13T08:39:12.950Z,10.80
2023-01-13T08:41:58.879Z,10.80
2023-01-13T08:44:34.803Z,10.86
2023-01-13T08:47:09.022Z,10.90
2023-01-13T08:49:43.215Z,10.90
2023-01-13T08:52:17.937Z,10.96
2023-01-13T08:54:52.319Z,11.00
2023-01-13T08:57:26.609Z,11.00
2023-01-13T09:00:00.855Z,11.00
2023-01-13T09:02:35.315Z,11.10
2023-01-13T09:05:11.247Z,11.10
2023-01-13T09:07:45.963Z,11.10
2023-01-13T09:10:20.243Z,11.20
2023-01-13T09:13:12.593Z,11.20
2023-01-13T09:15:49.111Z,11.20
2023-01-13T09:18:23.572Z,11.20
2023-01-13T09:20:57.647Z,11.20
2023-01-13T09:23:34.081Z,11.14
2023-01-13T09:26:09.713Z,11.10
2023-01-13T09:28:44.028Z,11.00
2023-01-13T09:31:18.771Z,10.96
2023-01-13T09:34:11.229Z,10.80
2023-01-13T09:36:46.033Z,10.70
2023-01-13T09:39:22.919Z,10.60
2023-01-13T09:42:21.702Z,10.60
2023-01-13T09:45:13.203Z,10.58
2023-01-13T09:47:58.761Z,10.50
2023-01-13T09:51:07.447Z,10.52
2023-01-13T09:53:51.844Z,10.58
2023-01-13T09:56:27.486Z,10.60
2023-01-13T09:59:02.322Z,10.60
2023-01-13T10:01:49.342Z,10.70
2023-01-13T10:04:23.685Z,10.70
2023-01-13T10:07:03.739Z,10.80
2023-01-13T10:09:53.805Z,10.80
2023-01-13T10:12:51.772Z,10.80
2023-01-13T10:15:28.234Z,10.90
2023-01-13T10:18:12.685Z,10.90
2023-01-13T10:20:58.984Z,10.98
2023-01-13T10:23:55.555Z,11.00
2023-01-13T10:26:56.370Z,11.10
2023-01-13T10:29:32.883Z,11.10
2023-01-13T10:32:08.442Z,11.18
2023-01-13T10:34:57.204Z,11.22
2023-01-13T10:37:32.327Z,11.30
2023-01-13T10:40:18.829Z,11.40
2023-01-13T10:43:09.086Z,11.60
2023-01-13T10:45:45.107Z,11.70
2023-01-13T10:48:20.487Z,11.70
2023-01-13T10:50:56.378Z,11.70
2023-01-13T10:53:45.940Z,11.80
2023-01-13T10:56:25.309Z,11.80
2023-01-13T10:59:18.632Z,11.90
2023-01-13T11:02:23.492Z,11.90
2023-01-13T11:05:19.960Z,12.00
2023-01-13T11:07:58.104Z,12.00
2023-01-13T11:10:34.923Z,12.10
2023-01-13T11:13:16.821Z,12.16
2023-01-13T11:15:57.203Z,12.20
2023-01-13T11:18:51.684Z,12.30
2023-01-13T11:21:36.237Z,12.30
2023-01-13T11:24:28.367Z,12.20
2023-01-13T11:27:08.487Z,12.20
2023-01-13T11:29:55.256Z,12.10
2023-01-13T11:32:34.747Z,12.10
2023-01-13T11:35:22.438Z,12.12
2023-01-13T11:38:05.572Z,12.20
2023-01-13T11:40:45.026Z,12.20
2023-01-13T11:43:33.178Z,12.34
2023-01-13T11:46:10.994Z,12.50
2023-01-13T11:48:47.350Z,12.50
2023-01-13T11:51:34.724Z,12.50
2023-01-13T11:54:56.477Z,12.50
2023-01-13T11:58:25.951Z,12.40
2023-01-13T12:01:28.866Z,12.40
2023-01-13T12:04:28.720Z,12.40
2023-01-13T12:07:22.866Z,12.40
2023-01-13T12:10:13.102Z,12.50
2023-01-13T12:13:01.952Z,12.50
2023-01-13T12:16:02.577Z,12.52
2023-01-13T12:19:01.490Z,12.50
2023-01-13T12:21:44.023Z,12.50
2023-01-13T12:24:28.013Z,12.40
2023-01-13T12:27:08.077Z,12.40
2023-01-13T12:29:44.687Z,12.30
2023-01-13T12:32:34.967Z,12.20
2023-01-13T12:35:34.705Z,12.20
2023-01-13T12:38:18.053Z,12.20
2023-01-13T12:41:06.271Z,12.20
2023-01-13T12:44:03.134Z,12.20
2023-01-13T12:46:57.570Z,12.28
2023-01-13T12:49:36.838Z,12.40
2023-01-13T12:52:20.543Z,12.40
2023-01-13T12:55:20.999Z,12.48
2023-01-13T12:58:15.862Z,12.60
2023-01-13T13:01:12.160Z,12.70
2023-01-13T13:04:10.779Z,12.78
2023-01-13T13:06:52.635Z,12.70
2023-01-13T13:09:34.989Z,12.60
2023-01-13T13:13:14.352Z,12.50
2023-01-13T13:15:53.113Z,12.40
2023-01-13T13:18:34.923Z,12.40
2023-01-13T13:21:14.382Z,12.30
2023-01-13T13:24:12.193Z,12.30
2023-01-13T13:26:47.587Z,12.20
2023-01-13T13:29:44.178Z,12.20
2023-01-13T13:32:59.052Z,12.10
2023-01-13T13:36:06.602Z,12.10
2023-01-13T13:39:22.395Z,12.02
2023-01-13T13:42:29.265Z,12.00
2023-01-13T13:45:33.036Z,11.92
2023-01-13T13:48:25.207Z,11.90
2023-01-13T13:51:04.107Z,11.90
2023-01-13T13:53:44.017Z,11.90
2023-01-13T13:56:26.033Z,11.90
2023-01-13T13:59:00.374Z,11.90
2023-01-13T14:01:47.445Z,11.90
2023-01-13T14:04:26.518Z,11.80
2023-01-13T14:07:05.762Z,11.80
2023-01-13T14:09:48.671Z,11.80
2023-01-13T14:12:27.351Z,11.80
2023-01-13T14:15:01.662Z,11.86
2023-01-13T14:17:37.716Z,11.80
2023-01-13T14:20:21.878Z,11.80
2023-01-13T14:23:01.775Z,11.80
2023-01-13T14:25:40.692Z,11.80
2023-01-13T14:28:28.616Z,11.80
2023-01-13T14:31:06.068Z,11.68
2023-01-13T14:33:46.155Z,11.50
2023-01-13T14:36:36.877Z,11.30
2023-01-13T14:39:39.034Z,11.10
2023-01-13T14:42:19.287Z,10.82
2023-01-13T14:44:56.349Z,10.70
2023-01-13T14:47:34.156Z,10.60
2023-01-13T14:50:22.175Z,10.50
2023-01-13T14:53:00.853Z,10.44
2023-01-13T15:01:46.398Z,10.22
2023-01-13T15:04:34.020Z,10.20
2023-01-13T15:07:24.381Z,10.10
2023-01-13T15:10:02.720Z,10.10
2023-01-13T15:12:41.383Z,10.10
2023-01-13T15:15:32.916Z,10.00
2023-01-13T15:18:17.092Z,10.00
2023-01-13T15:20:53.155Z,9.94
2023-01-13T15:23:27.738Z,9.90
2023-01-13T15:26:04.937Z,9.90
2023-01-13T15:28:40.993Z,9.90
2023-01-13T15:31:18.183Z,9.80
2023-01-13T15:33:53.064Z,9.80
2023-01-13T15:36:38.235Z,9.80
2023-01-13T15:39:17.621Z,9.80
2023-01-13T15:42:09.439Z,9.78
2023-01-13T15:45:04.981Z,9.70
2023-01-13T15:47:39.583Z,9.70
2023-01-13T15:50:23.083Z,9.70
2023-01-13T15:52:57.256Z,9.72
2023-01-13T15:55:31.624Z,9.76
2023-01-13T15:58:07.360Z,9.80
2023-01-13T16:00:42.413Z,9.78
2023-01-13T16:03:25.775Z,9.78
2023-01-13T16:06:00.687Z,9.78
2023-01-13T16:08:35.162Z,9.80
2023-01-13T16:11:11.009Z,9.74
2023-01-13T16:13:45.508Z,9.70
2023-01-13T16:16:26.310Z,9.70
2023-01-13T16:19:01.514Z,9.70
2023-01-13T16:21:36.705Z,9.70
2023-01-13T16:24:13.240Z,9.70
2023-01-13T16:26:47.830Z,9.60
2023-01-13T16:29:22.497Z,9.60
2023-01-13T16:31:57.546Z,9.60
2023-01-13T16:34:40.988Z,9.60
2023-01-13T16:37:26.380Z,9.56
2023-01-13T16:40:05.037Z,9.60
2023-01-13T16:42:44.381Z,9.60
2023-01-13T16:45:18.902Z,9.60
2023-01-13T16:47:53.567Z,9.50
2023-01-13T16:50:39.708Z,9.50
2023-01-13T16:53:14.666Z,9.56
2023-01-13T16:55:49.169Z,9.58
2023-01-13T16:58:24.377Z,9.60
2023-01-13T17:00:58.528Z,9.60
2023-01-13T17:03:36.072Z,9.60
2023-01-13T17:06:12.968Z,9.60
2023-01-13T17:08:47.083Z,9.60
2023-01-13T17:11:21.462Z,9.50
2023-01-13T17:13:55.303Z,9.50
2023-01-13T17:16:29.378Z,9.50
2023-01-13T17:19:03.507Z,9.50
2023-01-13T17:21:37.556Z,9.40
2023-01-13T17:24:13.361Z,9.40
2023-01-13T17:26:49.833Z,9.50
2023-01-13T17:29:27.777Z,9.50
2023-01-13T17:32:02.926Z,9.50
2023-01-13T17:34:37.221Z,9.50
2023-01-13T17:37:14.667Z,9.46
2023-01-13T17:39:51.125Z,9.40
2023-01-13T17:42:28.050Z,9.40
2023-01-13T17:45:01.892Z,9.40
2023-01-13T17:47:36.018Z,9.40
2023-01-13T17:50:11.993Z,9.40
2023-01-13T17:52:45.971Z,9.40
2023-01-13T17:55:20.191Z,9.32
2023-01-13T17:57:54.577Z,9.30
2023-01-13T18:00:29.771Z,9.20
2023-01-13T18:03:03.816Z,9.10
2023-01-13T18:05:39.507Z,9.00
2023-01-13T18:08:13.968Z,9.00
2023-01-13T18:10:52.176Z,8.90
2023-01-13T18:13:26.312Z,8.80
2023-01-13T18:16:14.549Z,8.80
2023-01-13T18:18:51.893Z,8.70
2023-01-13T18:21:45.926Z,8.60
2023-01-13T18:24:38.037Z,8.50
2023-01-13T18:27:22.743Z,8.50
2023-01-13T18:29:59.331Z,8.46
2023-01-13T18:32:35.075Z,8.40
2023-01-13T18:35:12.617Z,8.40
2023-01-13T18:37:46.958Z,8.30
2023-01-13T18:40:20.735Z,8.28
2023-01-13T18:42:59.252Z,8.20
2023-01-13T18:45:34.300Z,8.20
2023-01-13T18:48:09.590Z,8.20
2023-01-13T18:50:43.763Z,8.20
2023-01-13T18:53:17.648Z,8.20
2023-01-13T18:55:52.019Z,8.20
2023-01-13T18:58:27.741Z,8.26
2023-01-13T19:01:07.038Z,8.30
2023-01-13T19:03:41.325Z,8.34
2023-01-13T19:06:15.845Z,8.40
2023-01-13T19:08:53.427Z,8.32
2023-01-13T19:11:30.367Z,8.30
2023-01-13T19:14:05.012Z,8.30
2023-01-13T19:16:39.495Z,8.28
2023-01-13T19:19:13.399Z,8.28
2023-01-13T19:21:48.580Z,8.22
2023-01-13T19:24:23.028Z,8.20
2023-01-13T19:26:57.316Z,8.20
2023-01-13T19:29:33.128Z,8.12
2023-01-13T19:32:08.587Z,8.20
2023-01-13T19:34:43.454Z,8.20
2023-01-13T19:37:18.643Z,8.30
2023-01-13T19:39:52.786Z,8.30
2023-01-13T19:42:44.618Z,8.30
2023-01-13T19:45:30.805Z,8.40
2023-01-13T19:48:07.405Z,8.50
2023-01-13T19:50:43.276Z,8.50
2023-01-13T19:53:20.572Z,8.50
2023-01-13T19:55:55.298Z,8.50
2023-01-13T19:58:30.362Z,8.50
2023-01-13T20:01:09.885Z,8.50
2023-01-13T20:03:46.051Z,8.50
2023-01-13T20:06:21.593Z,8.40
2023-01-13T20:08:56.173Z,8.40
2023-01-13T20:11:33.330Z,8.36
2023-01-13T20:14:07.470Z,8.30
2023-01-13T20:16:41.691Z,8.20
2023-01-13T20:19:15.827Z,8.20
2023-01-13T20:21:50.455Z,8.20
2023-01-13T20:24:26.115Z,8.10
2023-01-13T20:27:01.194Z,8.10
2023-01-13T20:29:36.692Z,8.00
2023-01-13T20:32:11.109Z,8.00
2023-01-13T20:34:45.412Z,7.96
2023-01-13T20:37:20.021Z,7.90
2023-01-13T20:39:54.725Z,7.90
2023-01-13T20:42:39.697Z,7.80
2023-01-13T20:45:17.670Z,7.78
2023-01-13T20:47:52.888Z,7.70
2023-01-13T20:50:27.205Z,7.62
2023-01-13T20:53:01.133Z,7.60
2023-01-13T20:55:34.960Z,7.60
2023-01-13T20:58:08.964Z,7.60
2023-01-13T21:00:42.839Z,7.54
2023-01-13T21:03:16.667Z,7.50
2023-01-13T21:05:50.560Z,7.50
2023-01-13T21:08:24.365Z,7.50
2023-01-13T21:11:05.811Z,7.40
2023-01-13T21:13:57.398Z,7.40
2023-01-13T21:16:31.797Z,7.30
2023-01-13T21:19:10.573Z,7.30
2023-01-13T21:21:44.626Z,7.40
2023-01-13T21:24:18.640Z,7.50
2023-01-13T21:26:56.193Z,7.50
2023-01-13T21:29:30.408Z,7.60
2023-01-13T21:32:04.688Z,7.70
2023-01-13T21:34:38.637Z,7.70
2023-01-13T21:37:12.535Z,7.80
2023-01-13T21:39:47.106Z,7.80
2023-01-13T21:42:39.226Z,7.80
2023-01-13T21:45:32.663Z,7.80
2023-01-13T21:48:07.387Z,7.82
2023-01-13T21:50:42.348Z,7.84
2023-01-13T21:53:17.214Z,7.90
2023-01-13T21:55:56.141Z,7.80
2023-01-13T21:58:30.792Z,7.80
2023-01-13T22:01:06.818Z,7.70
2023-01-13T22:03:58.923Z,7.60
2023-01-13T22:06:33.296Z,7.52
2023-01-13T22:09:08.894Z,7.50
2023-01-13T22:11:43.482Z,7.40
2023-01-13T22:14:17.464Z,7.40
2023-01-13T22:16:52.974Z,7.40
2023-01-13T22:19:28.780Z,7.40
2023-01-13T22:22:02.718Z,7.40
2023-01-13T22:24:43.390Z,7.40
2023-01-13T22:27:20.551Z,7.40
2023-01-13T22:29:56.305Z,7.40
2023-01-13T22:32:30.474Z,7.40
2023-01-13T22:35:04.753Z,7.40
2023-01-13T22:37:39.169Z,7.40
2023-01-13T22:40:16.123Z,7.50
2023-01-13T22:42:50.305Z,7.60
2023-01-13T22:45:24.805Z,7.70
2023-01-13T22:47:59.557Z,7.80
2023-01-13T22:50:34.089Z,7.80
2023-01-13T22:53:08.032Z,7.88
2023-01-13T22:55:42.960Z,7.90
2023-01-13T22:58:17.652Z,7.90
2023-01-13T23:00:52.107Z,7.90
2023-01-13T23:03:26.907Z,8.00
2023-01-13T23:06:04.006Z,8.00
2023-01-13T23:08:38.865Z,8.00
2023-01-13T23:11:17.598Z,8.00
2023-01-13T23:13:51.731Z,8.02
2023-01-13T23:16:25.961Z,8.00
2023-01-13T23:18:59.921Z,8.00
2023-01-13T23:21:36.863Z,8.00
2023-01-13T23:24:12.948Z,7.90
2023-01-13T23:26:47.255Z,7.80
2023-01-13T23:29:22.483Z,7.80
2023-01-13T23:31:56.644Z,7.80
2023-01-13T23:34:30.608Z,7.80
2023-01-13T23:37:04.679Z,7.80
2023-01-13T23:39:38.763Z,7.80
2023-01-13T23:42:14.019Z,7.80
2023-01-13T23:44:48.172Z,7.76
2023-01-13T23:47:22.354Z,7.70
2023-01-13T23:49:56.189Z,7.70
2023-01-13T23:52:30.230Z,7.70
2023-01-13T23:55:04.122Z,7.62
2023-01-13T23:57:38.319Z,7.62
